Time;durP1;ratioP1;P1;durP2;ratioP2;P2;SDS_P1;SDS_P2;PMS_P1;PMS_P2;Temp;Humidity;BMP_temperature;BMP_pressure;BME280_temperature;BME280_humidity;BME280_pressure;Samples;Min_cycle;Max_cycle;Signal;HPM_P1;HPM_P2
2023/04/14 00:02:07;;;;;;;4.77;4.23;;;9.00;99.90;;;;;;4910701;29;20217;-75
2023/04/14 00:04:34;;;;;;;6.10;4.63;;;9.00;99.90;;;;;;4922303;29;20332;-75
2023/04/14 00:07:01;;;;;;;5.53;4.50;;;9.00;99.90;;;;;;4929789;29;20227;-75
2023/04/14 00:09:28;;;;;;;5.73;5.13;;;9.00;99.90;;;;;;4929558;29;20295;-75
2023/04/14 00:11:56;;;;;;;8.00;5.20;;;9.00;99.90;;;;;;4929531;29;20204;-75
2023/04/14 00:14:23;;;;;;;7.90;5.17;;;9.10;99.90;;;;;;4929268;29;20212;-75
2023/04/14 00:16:51;;;;;;;6.30;5.03;;;9.00;99.90;;;;;;4928982;29;20699;-75
2023/04/14 00:19:18;;;;;;;6.17;5.20;;;9.10;99.90;;;;;;4929341;29;20216;-75
2023/04/14 00:21:45;;;;;;;5.07;4.57;;;9.10;99.90;;;;;;4929193;29;20335;-75
2023/04/14 00:24:11;;;;;;;6.83;5.10;;;9.10;99.90;;;;;;4929318;29;20638;-75
2023/04/14 00:26:38;;;;;;;5.67;5.07;;;9.10;99.90;;;;;;4929422;29;20218;-75
2023/04/14 00:29:05;;;;;;;5.93;5.33;;;9.10;99.90;;;;;;4928814;29;20299;-74
2023/04/14 00:31:32;;;;;;;9.33;5.60;;;9.10;99.90;;;;;;4928472;29;20299;-75
2023/04/14 00:34:00;;;;;;;6.23;5.40;;;9.10;99.90;;;;;;4928699;29;20773;-76
2023/04/14 00:36:27;;;;;;;7.37;5.30;;;9.10;99.90;;;;;;4929423;29;20236;-75
2023/04/14 00:38:54;;;;;;;6.77;5.50;;;9.10;99.90;;;;;;4929016;29;20726;-75
2023/04/14 00:41:23;;;;;;;6.93;5.73;;;9.20;99.90;;;;;;4929087;29;20319;-76
2023/04/14 00:43:53;;;;;;;7.00;5.90;;;9.10;99.90;;;;;;4928967;29;20220;-75
2023/04/14 00:46:20;;;;;;;7.20;5.40;;;9.10;99.90;;;;;;4928919;29;20307;-76
2023/04/14 00:48:47;;;;;;;8.37;6.03;;;9.20;99.90;;;;;;4929259;29;20215;-75
2023/04/14 00:51:16;;;;;;;6.13;5.63;;;9.20;99.90;;;;;;4928722;29;20368;-75
2023/04/14 00:53:43;;;;;;;6.80;6.10;;;9.10;99.90;;;;;;4928873;29;20243;-75
2023/04/14 00:56:10;;;;;;;8.17;6.27;;;9.00;99.90;;;;;;4928510;29;20319;-76
2023/04/14 00:58:38;;;;;;;9.80;6.10;;;9.00;99.90;;;;;;4929108;29;20303;-75
2023/04/14 01:01:05;;;;;;;5.80;5.20;;;9.00;99.90;;;;;;4928506;29;20259;-75
2023/04/14 01:03:33;;;;;;;6.20;5.60;;;9.00;99.90;;;;;;4927807;29;20659;-76
2023/04/14 01:05:59;;;;;;;5.73;5.10;;;8.90;99.90;;;;;;4928371;29;20284;-75
2023/04/14 01:08:28;;;;;;;8.87;5.27;;;9.00;99.90;;;;;;4928795;29;20212;-76
2023/04/14 01:11:05;;;;;;;8.43;5.40;;;9.00;99.90;;;;;;4928679;29;20401;-76
2023/04/14 01:13:36;;;;;;;5.90;5.40;;;9.00;99.90;;;;;;4928319;29;20725;-76
2023/04/14 01:16:09;;;;;;;7.30;5.00;;;9.00;99.90;;;;;;4928012;29;20334;-76
2023/04/14 01:18:44;;;;;;;6.20;5.60;;;9.10;99.90;;;;;;4927941;29;20204;-75
2023/04/14 01:21:17;;;;;;;5.73;5.13;;;9.10;99.90;;;;;;4928901;29;20239;-74
2023/04/14 01:24:01;;;;;;;5.43;4.90;;;9.10;99.90;;;;;;4928721;29;20283;-74
2023/04/14 01:26:30;;;;;;;5.17;4.60;;;9.10;99.90;;;;;;4928357;29;20204;-74
2023/04/14 01:29:33;;;;;;;7.53;5.43;;;9.10;99.90;;;;;;4927782;29;20302;-76
2023/04/14 01:32:04;;;;;;;6.13;5.13;;;9.00;99.90;;;;;;4902626;29;20222;-76
2023/04/14 01:34:36;;;;;;;5.27;3.80;;;9.10;99.90;;;;;;4920925;29;20717;-75
2023/04/14 01:37:06;;;;;;;6.50;4.00;;;9.00;99.90;;;;;;4928061;29;20227;-76
2023/04/14 01:39:37;;;;;;;4.50;3.50;;;9.10;99.90;;;;;;4928126;29;20304;-75
2023/04/14 01:42:07;;;;;;;5.07;4.17;;;9.10;99.90;;;;;;4928508;29;20283;-75
2023/04/14 01:44:35;;;;;;;4.93;4.10;;;9.10;99.90;;;;;;4928411;29;20250;-76
2023/04/14 01:47:07;;;;;;;4.83;4.00;;;9.10;99.90;;;;;;4928266;29;20223;-77
2023/04/14 01:49:38;;;;;;;3.97;3.57;;;9.10;99.90;;;;;;4927975;29;20295;-76
2023/04/14 01:52:09;;;;;;;4.20;3.80;;;9.10;99.90;;;;;;4928215;29;20275;-77
2023/04/14 01:54:37;;;;;;;4.43;3.53;;;9.10;99.90;;;;;;4927896;29;20215;-77
2023/04/14 01:57:06;;;;;;;4.10;3.80;;;9.10;99.90;;;;;;4927542;29;20242;-77
2023/04/14 01:59:37;;;;;;;3.83;3.17;;;9.10;99.90;;;;;;4917292;29;20236;-77
2023/04/14 02:02:08;;;;;;;4.10;3.67;;;9.10;99.90;;;;;;4940182;29;20203;-77
2023/04/14 02:04:37;;;;;;;3.83;3.20;;;9.10;99.90;;;;;;4947375;28;20283;-77
2023/04/14 02:07:06;;;;;;;4.10;3.40;;;9.00;99.90;;;;;;4929975;28;20628;-77
2023/04/14 02:09:35;;;;;;;5.17;4.13;;;9.10;99.90;;;;;;4927963;29;20757;-77
2023/04/14 02:12:04;;;;;;;5.93;3.50;;;9.20;99.90;;;;;;4927680;29;20307;-77
2023/04/14 02:14:32;;;;;;;4.40;3.67;;;9.10;99.90;;;;;;4929576;29;20687;-77
2023/04/14 02:17:01;;;;;;;4.10;3.70;;;9.10;99.90;;;;;;4930992;29;20271;-77
2023/04/14 02:19:30;;;;;;;4.73;3.80;;;9.10;99.90;;;;;;4931063;29;20303;-74
2023/04/14 02:21:58;;;;;;;4.10;3.63;;;9.10;99.90;;;;;;4931027;29;20300;-72
2023/04/14 02:24:25;;;;;;;4.40;3.97;;;9.10;99.90;;;;;;4930333;29;20733;-74
2023/04/14 02:26:57;;;;;;;6.17;3.93;;;9.10;99.90;;;;;;4930113;29;20650;-73
2023/04/14 02:29:26;;;;;;;4.33;3.87;;;9.00;99.90;;;;;;4928631;29;20204;-74
2023/04/14 02:32:12;;;;;;;4.80;4.30;;;9.00;99.90;;;;;;4929543;29;20251;-74
2023/04/14 02:34:50;;;;;;;5.13;3.83;;;9.10;99.90;;;;;;4930063;29;20204;-74
2023/04/14 02:37:21;;;;;;;4.20;3.70;;;9.10;99.90;;;;;;4929479;29;20220;-74
2023/04/14 02:39:53;;;;;;;5.20;3.90;;;9.10;99.90;;;;;;4929593;29;20210;-73
2023/04/14 02:42:24;;;;;;;6.00;4.20;;;9.10;99.90;;;;;;4929352;29;20296;-74
2023/04/14 02:44:56;;;;;;;4.03;3.73;;;9.10;99.90;;;;;;4929658;29;20287;-74
2023/04/14 02:47:27;;;;;;;5.40;3.83;;;9.00;99.90;;;;;;4928706;29;20212;-74
2023/04/14 02:49:58;;;;;;;4.87;4.13;;;9.10;99.90;;;;;;4929219;29;20291;-74
2023/04/14 02:52:28;;;;;;;5.47;4.27;;;9.10;99.90;;;;;;4929273;29;20267;-74
2023/04/14 02:54:56;;;;;;;4.90;4.13;;;9.10;99.90;;;;;;4928664;29;20676;-74
2023/04/14 02:57:24;;;;;;;7.33;4.23;;;9.10;99.90;;;;;;4929115;29;20236;-75
2023/04/14 02:59:52;;;;;;;6.13;4.20;;;9.10;99.90;;;;;;4928453;29;20722;-75
2023/04/14 03:02:20;;;;;;;4.50;4.10;;;9.10;99.90;;;;;;4928165;29;20227;-76
2023/04/14 03:04:47;;;;;;;5.60;4.27;;;9.10;99.90;;;;;;4920758;29;20287;-75
2023/04/14 03:07:17;;;;;;;4.60;3.80;;;9.10;99.90;;;;;;4929827;29;20287;-75
2023/04/14 03:09:46;;;;;;;3.67;3.37;;;9.00;99.90;;;;;;4929995;29;20323;-75
2023/04/14 03:12:15;;;;;;;4.47;4.03;;;9.00;99.90;;;;;;4942472;29;20270;-76
2023/04/14 03:14:44;;;;;;;4.07;3.57;;;9.00;99.90;;;;;;4949211;28;20215;-76
2023/04/14 03:17:13;;;;;;;3.47;3.17;;;9.00;99.90;;;;;;4949104;28;20369;-75
2023/04/14 03:19:40;;;;;;;5.13;3.13;;;9.00;99.90;;;;;;4949565;28;20453;-75
2023/04/14 03:22:08;;;;;;;3.17;2.90;;;9.00;99.90;;;;;;4949689;28;20311;-75
2023/04/14 03:24:38;;;;;;;3.07;2.80;;;9.00;99.90;;;;;;4949507;28;20207;-75
2023/04/14 03:27:09;;;;;;;3.70;3.00;;;9.00;99.90;;;;;;4936371;28;20254;-76
2023/04/14 03:29:42;;;;;;;4.53;3.03;;;9.00;99.90;;;;;;4930356;29;20212;-76
2023/04/14 03:32:11;;;;;;;3.63;3.00;;;9.00;99.90;;;;;;4930185;29;20295;-75
2023/04/14 03:34:40;;;;;;;2.80;2.57;;;9.10;99.90;;;;;;4930369;29;20299;-76
2023/04/14 03:37:08;;;;;;;2.90;2.70;;;9.10;99.90;;;;;;4930386;29;20235;-76
2023/04/14 03:39:39;;;;;;;3.40;3.10;;;9.10;99.90;;;;;;4929987;29;20275;-76
2023/04/14 03:42:07;;;;;;;8.13;3.20;;;9.20;99.90;;;;;;4930206;29;20197;-76
2023/04/14 03:44:36;;;;;;;3.53;2.77;;;9.20;99.90;;;;;;4930061;29;20578;-76
2023/04/14 03:47:04;;;;;;;5.23;3.10;;;9.20;99.90;;;;;;4929705;29;20216;-76
2023/04/14 03:49:32;;;;;;;3.53;2.97;;;9.20;99.90;;;;;;4929805;29;20216;-76
2023/04/14 03:52:03;;;;;;;4.83;3.23;;;9.20;99.90;;;;;;4929988;29;20331;-76
2023/04/14 03:54:32;;;;;;;3.53;2.73;;;9.20;99.90;;;;;;4930208;29;20247;-76
2023/04/14 03:57:03;;;;;;;5.63;3.17;;;9.20;99.90;;;;;;4929601;29;20240;-76
2023/04/14 03:59:32;;;;;;;3.77;2.83;;;9.20;99.90;;;;;;4929736;29;20228;-75
2023/04/14 04:02:01;;;;;;;5.13;3.10;;;9.30;99.90;;;;;;4929966;29;20302;-76
2023/04/14 04:04:29;;;;;;;6.57;3.93;;;9.30;99.90;;;;;;4929677;29;20216;-75
2023/04/14 04:06:57;;;;;;;6.40;3.47;;;9.30;99.90;;;;;;4930155;29;20208;-76
2023/04/14 04:09:25;;;;;;;3.63;3.10;;;9.20;99.90;;;;;;4949159;28;20613;-76
2023/04/14 04:11:53;;;;;;;4.63;3.10;;;9.20;99.90;;;;;;4948554;28;20311;-75
2023/04/14 04:14:24;;;;;;;3.77;3.00;;;9.30;99.90;;;;;;4948454;28;20803;-76
2023/04/14 04:16:52;;;;;;;5.70;3.13;;;9.20;99.90;;;;;;4948215;28;20244;-76
2023/04/14 04:19:22;;;;;;;5.17;3.70;;;9.20;99.90;;;;;;4948519;28;20207;-76
2023/04/14 04:22:01;;;;;;;3.20;2.90;;;9.20;99.90;;;;;;4948247;28;20294;-76
2023/04/14 04:24:32;;;;;;;3.53;3.10;;;9.10;99.90;;;;;;4929470;29;20240;-76
2023/04/14 04:27:00;;;;;;;3.73;3.43;;;9.20;99.90;;;;;;4929074;29;20200;-76
2023/04/14 04:29:29;;;;;;;3.33;3.13;;;9.20;99.90;;;;;;4918840;29;20221;-76
2023/04/14 04:31:56;;;;;;;5.80;3.30;;;9.20;99.90;;;;;;4909886;29;20295;-75
2023/04/14 04:34:24;;;;;;;3.43;3.13;;;9.20;99.90;;;;;;4910266;29;20308;-76
2023/04/14 04:36:51;;;;;;;3.73;2.90;;;9.20;99.90;;;;;;4910145;29;20213;-76
2023/04/14 04:39:18;;;;;;;2.90;2.70;;;9.20;99.90;;;;;;4909927;29;20331;-76
2023/04/14 04:41:45;;;;;;;4.37;3.27;;;9.20;99.90;;;;;;4909975;29;20642;-76
2023/04/14 04:44:12;;;;;;;4.87;3.80;;;9.20;99.90;;;;;;4910023;29;20217;-76
2023/04/14 04:46:52;;;;;;;4.23;3.20;;;9.20;99.90;;;;;;4927865;29;20720;-76
2023/04/14 04:49:19;;;;;;;8.23;3.80;;;9.20;99.90;;;;;;4929142;29;20204;-76
2023/04/14 04:51:46;;;;;;;6.57;3.83;;;9.20;99.90;;;;;;4929128;29;20631;-76
2023/04/14 04:54:13;;;;;;;4.83;4.00;;;9.20;99.90;;;;;;4928700;29;20307;-76
2023/04/14 04:56:40;;;;;;;7.30;4.30;;;9.20;99.90;;;;;;4929221;29;20291;-76
2023/04/14 04:59:07;;;;;;;5.00;3.97;;;9.20;99.90;;;;;;4942015;28;20662;-76
2023/04/14 05:01:34;;;;;;;6.10;3.70;;;9.20;99.90;;;;;;4948083;28;20635;-76
2023/04/14 05:04:02;;;;;;;5.73;3.63;;;9.20;99.90;;;;;;4931997;28;20247;-76
2023/04/14 05:06:29;;;;;;;4.53;3.43;;;9.20;99.90;;;;;;4928565;29;20299;-76
2023/04/14 05:08:56;;;;;;;5.73;3.53;;;9.30;99.90;;;;;;4928458;29;20290;-76
2023/04/14 05:11:23;;;;;;;3.33;3.00;;;9.30;99.90;;;;;;4928548;29;20374;-76
2023/04/14 05:13:50;;;;;;;3.57;3.20;;;9.30;99.90;;;;;;4928289;29;20208;-76
2023/04/14 05:16:18;;;;;;;4.73;3.10;;;9.30;99.90;;;;;;4928384;29;20327;-76
2023/04/14 05:18:45;;;;;;;3.50;3.00;;;9.30;99.90;;;;;;4928383;29;20238;-76
2023/04/14 05:21:14;;;;;;;3.57;2.93;;;9.40;99.90;;;;;;4928263;29;20227;-76
2023/04/14 05:23:42;;;;;;;7.00;3.00;;;9.40;99.90;;;;;;4928335;29;20667;-76
2023/04/14 05:26:11;;;;;;;3.43;3.00;;;9.40;99.90;;;;;;4928476;29;20306;-76
2023/04/14 05:28:38;;;;;;;5.80;3.40;;;9.50;99.90;;;;;;4928282;29;20510;-76
2023/04/14 05:31:06;;;;;;;7.00;3.13;;;9.50;99.90;;;;;;4928220;29;20251;-76
2023/04/14 05:33:33;;;;;;;5.03;3.17;;;9.50;99.90;;;;;;4928234;29;20762;-75
2023/04/14 05:36:00;;;;;;;3.23;2.83;;;9.50;99.90;;;;;;4928233;29;20212;-76
2023/04/14 05:38:28;;;;;;;4.83;2.90;;;9.50;99.90;;;;;;4928137;29;20243;-76
2023/04/14 05:40:55;;;;;;;3.67;2.90;;;9.40;99.90;;;;;;4927957;29;20216;-76
2023/04/14 05:43:22;;;;;;;3.33;3.00;;;9.50;99.90;;;;;;4927938;29;20218;-76
2023/04/14 05:45:49;;;;;;;3.07;2.87;;;9.50;99.90;;;;;;4928323;29;20302;-75
2023/04/14 05:48:17;;;;;;;4.13;3.10;;;9.50;99.90;;;;;;4928040;29;20303;-76
2023/04/14 05:50:44;;;;;;;4.53;3.73;;;9.50;99.90;;;;;;4931481;29;20631;-76
2023/04/14 05:53:11;;;;;;;5.80;2.70;;;9.50;99.90;;;;;;4932592;29;20244;-76
2023/04/14 05:55:41;;;;;;;3.03;2.80;;;9.50;99.90;;;;;;4931901;29;20271;-75
2023/04/14 05:58:08;;;;;;;4.67;3.10;;;9.50;99.90;;;;;;4932184;29;20244;-76
2023/04/14 06:00:35;;;;;;;3.40;3.10;;;9.50;99.90;;;;;;4931767;29;20278;-76
2023/04/14 06:03:02;;;;;;;3.20;2.90;;;9.50;99.90;;;;;;4932198;29;20212;-76
2023/04/14 06:05:29;;;;;;;4.00;3.40;;;9.50;99.90;;;;;;4932014;29;20302;-76
2023/04/14 06:07:56;;;;;;;5.47;3.63;;;9.50;99.90;;;;;;4919521;29;20742;-76
2023/04/14 06:10:23;;;;;;;4.13;3.70;;;9.50;99.90;;;;;;4912971;29;20217;-76
2023/04/14 06:12:51;;;;;;;4.40;3.43;;;9.50;99.90;;;;;;4913367;29;20321;-76
2023/04/14 06:15:18;;;;;;;5.23;3.50;;;9.50;99.90;;;;;;4920522;29;20577;-76
2023/04/14 06:17:46;;;;;;;5.10;4.00;;;9.50;99.90;;;;;;4931346;29;20244;-76
2023/04/14 06:20:13;;;;;;;6.67;4.07;;;9.50;99.90;;;;;;4931420;29;20631;-76
2023/04/14 06:22:41;;;;;;;7.57;4.13;;;9.50;99.90;;;;;;4931626;29;20221;-76
2023/04/14 06:25:09;;;;;;;6.63;4.43;;;9.50;99.90;;;;;;4931705;29;20637;-75
2023/04/14 06:27:36;;;;;;;6.90;4.33;;;9.50;99.90;;;;;;4931134;29;20717;-76
2023/04/14 06:30:08;;;;;;;5.40;4.30;;;9.60;99.90;;;;;;4930971;29;20678;-76
2023/04/14 06:32:34;;;;;;;6.80;3.90;;;9.60;99.90;;;;;;4931726;29;20299;-76
2023/04/14 06:35:03;;;;;;;4.37;3.60;;;9.60;99.90;;;;;;4931393;29;20208;-76
2023/04/14 06:37:30;;;;;;;6.23;3.73;;;9.60;99.90;;;;;;4931742;29;20209;-76
2023/04/14 06:39:57;;;;;;;5.27;3.27;;;9.60;99.90;;;;;;4931437;29;20622;-76
2023/04/14 06:42:25;;;;;;;3.47;3.10;;;9.60;99.90;;;;;;4931512;29;20295;-76
2023/04/14 06:44:51;;;;;;;3.40;3.10;;;9.60;99.90;;;;;;4931550;29;20291;-76
2023/04/14 06:47:22;;;;;;;3.40;3.10;;;9.60;99.90;;;;;;4931367;29;20250;-76
2023/04/14 06:49:50;;;;;;;3.10;2.80;;;9.60;99.90;;;;;;4931383;29;20200;-76
2023/04/14 06:52:17;;;;;;;4.43;3.10;;;9.60;99.90;;;;;;4931341;29;20294;-75
2023/04/14 06:54:44;;;;;;;3.70;3.30;;;9.60;99.90;;;;;;4931159;29;20217;-76
2023/04/14 06:57:10;;;;;;;3.20;2.90;;;9.60;99.90;;;;;;4928328;29;20216;-76
2023/04/14 06:59:37;;;;;;;4.03;3.40;;;9.60;99.90;;;;;;4930223;29;20783;-76
2023/04/14 07:02:05;;;;;;;4.27;2.67;;;9.60;99.90;;;;;;4929516;29;20855;-75
2023/04/14 07:04:35;;;;;;;4.87;3.00;;;9.60;99.90;;;;;;4930578;29;20674;-76
2023/04/14 07:07:02;;;;;;;3.63;3.10;;;9.60;99.90;;;;;;4931398;29;20315;-76
2023/04/14 07:09:29;;;;;;;3.67;3.37;;;9.60;99.90;;;;;;4930883;29;20581;-76
2023/04/14 07:11:56;;;;;;;4.03;3.20;;;9.60;99.90;;;;;;4930751;29;20275;-76
2023/04/14 07:14:23;;;;;;;4.70;2.90;;;9.50;99.90;;;;;;4930636;29;20208;-75
2023/04/14 07:16:51;;;;;;;3.33;3.00;;;9.60;99.90;;;;;;4930417;29;20318;-76
2023/04/14 07:19:18;;;;;;;3.27;3.07;;;9.60;99.90;;;;;;4930153;29;21035;-75
2023/04/14 07:21:47;;;;;;;4.23;3.33;;;9.60;99.90;;;;;;4930163;29;20335;-76
2023/04/14 07:24:14;;;;;;;3.70;3.43;;;9.60;99.90;;;;;;4930724;29;20212;-76
2023/04/14 07:26:41;;;;;;;5.00;3.57;;;9.60;99.90;;;;;;4930617;29;20323;-76
2023/04/14 07:29:08;;;;;;;4.17;3.40;;;9.70;99.90;;;;;;4930204;29;20227;-76
2023/04/14 07:31:36;;;;;;;7.47;3.10;;;9.70;99.90;;;;;;4930216;29;20299;-76
2023/04/14 07:34:04;;;;;;;4.67;3.43;;;9.60;99.90;;;;;;4930121;29;20251;-76
2023/04/14 07:36:31;;;;;;;4.23;3.83;;;9.70;99.90;;;;;;4929944;29;20248;-76
2023/04/14 07:39:00;;;;;;;3.83;3.43;;;9.70;99.90;;;;;;4930209;29;20904;-76
2023/04/14 07:41:27;;;;;;;3.43;3.20;;;9.70;99.90;;;;;;4930251;29;20212;-76
2023/04/14 07:43:56;;;;;;;5.73;3.50;;;9.80;99.90;;;;;;4933117;29;20322;-76
2023/04/14 07:46:23;;;;;;;3.87;3.37;;;9.80;99.90;;;;;;4949072;28;20693;-76
2023/04/14 07:48:50;;;;;;;4.60;3.80;;;9.80;99.90;;;;;;4949336;28;20211;-76
2023/04/14 07:51:17;;;;;;;4.40;4.00;;;9.80;99.90;;;;;;4948969;28;20242;-75
2023/04/14 07:53:44;;;;;;;4.67;3.90;;;9.90;99.90;;;;;;4931919;28;20259;-76
2023/04/14 07:56:12;;;;;;;5.23;4.03;;;9.90;99.90;;;;;;4930108;29;20377;-76
2023/04/14 07:58:40;;;;;;;4.40;3.70;;;9.90;99.90;;;;;;4929457;29;20331;-76
2023/04/14 08:01:07;;;;;;;5.93;3.93;;;9.90;99.90;;;;;;4930091;29;20220;-76
2023/04/14 08:03:36;;;;;;;4.43;3.77;;;9.90;99.90;;;;;;4929738;29;20307;-75
2023/04/14 08:06:04;;;;;;;4.03;3.73;;;10.00;99.90;;;;;;4929590;29;20208;-76
2023/04/14 08:08:31;;;;;;;4.13;3.80;;;10.00;99.90;;;;;;4929663;29;20216;-76
2023/04/14 08:10:58;;;;;;;4.10;3.80;;;10.00;99.90;;;;;;4929802;29;20579;-76
2023/04/14 08:13:26;;;;;;;4.40;4.00;;;10.00;99.90;;;;;;4929012;29;20308;-76
2023/04/14 08:15:53;;;;;;;4.67;3.87;;;10.00;99.90;;;;;;4929193;29;20244;-76
2023/04/14 08:18:20;;;;;;;4.50;3.70;;;10.10;99.90;;;;;;4929559;29;20599;-76
2023/04/14 08:20:48;;;;;;;5.33;3.73;;;10.10;99.90;;;;;;4929596;29;20295;-76
2023/04/14 08:23:15;;;;;;;6.17;3.77;;;10.10;99.90;;;;;;4929720;29;20240;-76
2023/04/14 08:25:43;;;;;;;4.47;3.90;;;10.10;99.90;;;;;;4929548;29;20295;-76
2023/04/14 08:28:10;;;;;;;6.43;3.80;;;10.10;99.90;;;;;;4929411;29;20250;-76
2023/04/14 08:30:38;;;;;;;5.20;3.63;;;10.10;99.90;;;;;;4919842;29;20244;-76
2023/04/14 08:33:05;;;;;;;6.37;3.77;;;10.10;99.90;;;;;;4929321;29;20308;-76
2023/04/14 08:35:32;;;;;;;3.70;3.37;;;10.20;99.90;;;;;;4929482;29;20307;-76
2023/04/14 08:38:00;;;;;;;5.30;3.70;;;10.20;99.90;;;;;;4929592;29;20295;-76
2023/04/14 08:40:33;;;;;;;4.13;3.73;;;10.20;99.90;;;;;;4929032;29;20706;-75
2023/04/14 08:43:00;;;;;;;3.90;3.60;;;10.20;99.90;;;;;;4929253;29;20227;-76
2023/04/14 08:45:28;;;;;;;4.17;3.67;;;10.20;99.90;;;;;;4928776;29;20215;-76
2023/04/14 08:47:58;;;;;;;3.97;3.67;;;10.30;99.90;;;;;;4929092;29;20315;-75
2023/04/14 08:50:26;;;;;;;4.07;3.70;;;10.30;99.90;;;;;;4910622;29;20762;-76
2023/04/14 08:52:56;;;;;;;3.83;3.40;;;10.20;99.90;;;;;;4910274;29;20307;-75
2023/04/14 08:55:24;;;;;;;4.10;3.70;;;10.20;99.90;;;;;;4909770;29;20223;-76
2023/04/14 08:57:51;;;;;;;3.07;2.87;;;10.30;99.90;;;;;;4909802;29;20396;-75
2023/04/14 09:00:19;;;;;;;3.27;3.07;;;10.20;99.90;;;;;;4926259;29;20302;-76
2023/04/14 09:02:46;;;;;;;3.67;3.37;;;10.20;99.90;;;;;;4928758;29;20204;-76
2023/04/14 09:05:15;;;;;;;5.07;3.30;;;10.30;99.90;;;;;;4928868;29;20263;-75
2023/04/14 09:07:42;;;;;;;4.97;3.97;;;10.20;99.90;;;;;;4928383;29;20251;-76
2023/04/14 09:10:11;;;;;;;3.40;3.17;;;10.30;99.90;;;;;;4928193;29;20678;-75
2023/04/14 09:12:39;;;;;;;3.63;3.33;;;10.30;99.90;;;;;;4928318;29;20303;-76
2023/04/14 09:15:07;;;;;;;3.20;2.90;;;10.30;99.90;;;;;;4928618;29;20291;-75
2023/04/14 09:17:35;;;;;;;3.90;2.80;;;10.30;99.90;;;;;;4928102;29;20502;-79
2023/04/14 09:20:02;;;;;;;2.67;2.47;;;10.30;99.90;;;;;;4928435;29;20250;-75
2023/04/14 09:22:31;;;;;;;2.73;2.50;;;10.30;99.90;;;;;;4928044;29;20957;-75
2023/04/14 09:24:58;;;;;;;2.60;2.50;;;10.20;99.90;;;;;;4927664;29;20624;-76
2023/04/14 09:27:26;;;;;;;5.77;2.90;;;10.30;99.90;;;;;;4927957;29;20669;-75
2023/04/14 09:29:56;;;;;;;4.00;2.87;;;10.30;99.90;;;;;;4927997;29;20216;-75
2023/04/14 09:32:24;;;;;;;3.27;2.63;;;10.20;99.90;;;;;;4928679;29;20267;-75
2023/04/14 09:34:52;;;;;;;2.77;2.50;;;10.30;99.90;;;;;;4928592;29;20216;-76
2023/04/14 09:37:21;;;;;;;2.53;2.40;;;10.20;99.90;;;;;;4928492;29;20223;-75
2023/04/14 09:39:51;;;;;;;2.60;2.40;;;10.20;99.90;;;;;;4928560;29;20278;-75
2023/04/14 09:42:20;;;;;;;3.47;2.60;;;10.20;99.90;;;;;;4928445;29;20201;-75
2023/04/14 09:44:54;;;;;;;2.60;2.40;;;10.20;99.90;;;;;;4928000;29;20215;-76
2023/04/14 09:47:23;;;;;;;2.40;2.30;;;10.30;99.90;;;;;;4928215;29;20218;-75
2023/04/14 09:49:57;;;;;;;3.40;3.10;;;10.20;99.90;;;;;;4928439;29;20215;-76
2023/04/14 09:52:37;;;;;;;2.93;2.67;;;10.30;99.90;;;;;;4928401;29;20582;-75
2023/04/14 09:55:07;;;;;;;2.93;2.70;;;10.30;99.90;;;;;;4928339;29;20216;-75
2023/04/14 09:57:36;;;;;;;2.90;2.70;;;10.30;99.90;;;;;;4927897;29;20262;-75
2023/04/14 10:00:04;;;;;;;3.03;2.83;;;10.30;99.90;;;;;;4928005;29;20244;-75
2023/04/14 10:02:46;;;;;;;2.90;2.77;;;10.30;99.90;;;;;;4927973;29;20216;-76
2023/04/14 10:05:13;;;;;;;3.77;2.90;;;10.30;99.90;;;;;;4928352;29;20930;-75
2023/04/14 10:07:41;;;;;;;4.50;3.07;;;10.30;99.90;;;;;;4927531;29;20215;-76
2023/04/14 10:10:13;;;;;;;3.20;3.00;;;10.30;99.90;;;;;;4928320;29;20589;-75
2023/04/14 10:12:42;;;;;;;4.50;3.43;;;10.30;99.90;;;;;;4928213;29;20201;-75
2023/04/14 10:15:10;;;;;;;4.47;3.30;;;10.30;99.90;;;;;;4927915;29;20220;-75
2023/04/14 10:17:38;;;;;;;2.60;2.50;;;10.30;99.90;;;;;;4927736;29;20254;-75
2023/04/14 10:20:06;;;;;;;2.97;2.77;;;10.30;99.90;;;;;;4928535;29;20331;-75
2023/04/14 10:22:33;;;;;;;2.83;2.60;;;10.30;99.90;;;;;;4927712;29;20216;-76
2023/04/14 10:25:01;;;;;;;3.07;2.87;;;10.30;99.90;;;;;;4928444;29;20302;-76
2023/04/14 10:27:31;;;;;;;4.27;3.23;;;10.30;99.90;;;;;;4927853;29;20227;-76
2023/04/14 10:29:59;;;;;;;2.70;2.50;;;10.30;99.90;;;;;;4927645;29;20312;-76
2023/04/14 10:32:30;;;;;;;2.90;2.70;;;10.40;99.90;;;;;;4928005;29;20209;-75
2023/04/14 10:35:02;;;;;;;2.77;2.57;;;10.40;99.90;;;;;;4928875;29;20228;-75
2023/04/14 10:37:29;;;;;;;2.60;2.23;;;10.40;99.90;;;;;;4931597;29;20563;-75
2023/04/14 10:39:58;;;;;;;3.90;2.07;;;10.50;99.90;;;;;;4931561;29;20244;-76
2023/04/14 10:42:25;;;;;;;2.73;2.47;;;10.40;99.90;;;;;;4930932;29;20243;-75
2023/04/14 10:45:05;;;;;;;2.63;2.43;;;10.40;99.90;;;;;;4930950;29;20630;-75
2023/04/14 10:47:34;;;;;;;3.00;2.50;;;10.40;99.90;;;;;;4931189;29;20214;-75
2023/04/14 10:50:12;;;;;;;2.60;2.40;;;10.50;99.90;;;;;;4931069;29;20611;-75
2023/04/14 10:52:48;;;;;;;2.60;2.40;;;10.50;99.90;;;;;;4930596;29;20200;-75
2023/04/14 10:55:15;;;;;;;2.63;2.40;;;10.50;99.90;;;;;;4931080;29;21047;-75
2023/04/14 10:57:43;;;;;;;2.97;2.50;;;10.50;99.90;;;;;;4930875;29;20309;-75
2023/04/14 11:00:24;;;;;;;2.43;2.33;;;10.50;99.90;;;;;;4930740;29;20280;-75
2023/04/14 11:02:58;;;;;;;3.47;2.50;;;10.50;99.90;;;;;;4931248;29;20299;-75
2023/04/14 11:05:26;;;;;;;2.70;2.50;;;10.50;99.90;;;;;;4930601;29;20219;-76
2023/04/14 11:07:57;;;;;;;4.03;2.67;;;10.50;99.90;;;;;;4919238;29;20300;-75
2023/04/14 11:10:48;;;;;;;2.50;2.40;;;10.50;99.90;;;;;;4912240;29;20215;-76
2023/04/14 11:13:15;;;;;;;3.00;2.80;;;10.50;99.90;;;;;;4911961;29;20797;-76
2023/04/14 11:15:51;;;;;;;2.50;2.30;;;10.50;99.90;;;;;;4911485;29;20307;-75
2023/04/14 11:18:31;;;;;;;2.83;2.63;;;10.50;99.90;;;;;;4913405;29;20271;-76
2023/04/14 11:21:03;;;;;;;2.40;2.30;;;10.50;99.90;;;;;;4930773;29;20223;-76
2023/04/14 11:23:30;;;;;;;2.67;2.47;;;10.50;99.90;;;;;;4930889;29;20205;-75
2023/04/14 11:25:57;;;;;;;2.70;2.50;;;10.50;99.90;;;;;;4930926;29;20223;-75
2023/04/14 11:28:28;;;;;;;2.80;2.50;;;10.50;99.90;;;;;;4931045;29;20621;-75
2023/04/14 11:30:59;;;;;;;2.40;2.20;;;10.50;99.90;;;;;;4930501;29;20281;-75
2023/04/14 11:33:29;;;;;;;2.43;2.23;;;10.50;99.90;;;;;;4930832;29;20204;-76
2023/04/14 11:35:57;;;;;;;2.50;2.30;;;10.40;99.90;;;;;;4930581;29;20733;-75
2023/04/14 11:38:24;;;;;;;1.90;1.80;;;10.40;99.90;;;;;;4930466;29;20302;-75
2023/04/14 11:40:52;;;;;;;2.30;2.10;;;10.40;99.90;;;;;;4930873;29;20327;-76
2023/04/14 11:43:19;;;;;;;2.50;2.00;;;10.40;99.90;;;;;;4930614;29;20726;-75
2023/04/14 11:45:47;;;;;;;2.27;2.10;;;10.30;99.90;;;;;;4930244;29;20578;-76
2023/04/14 11:48:18;;;;;;;2.13;2.00;;;10.30;99.90;;;;;;4929833;29;20208;-75
2023/04/14 11:50:48;;;;;;;2.20;2.10;;;10.30;99.90;;;;;;4930474;29;20299;-75
2023/04/14 11:53:16;;;;;;;2.20;2.00;;;10.20;99.90;;;;;;4930570;29;20212;-75
2023/04/14 11:55:45;;;;;;;2.27;2.07;;;10.20;99.90;;;;;;4929959;29;20903;-75
2023/04/14 11:58:12;;;;;;;1.90;1.80;;;10.20;99.90;;;;;;4929756;29;20251;-75
2023/04/14 12:00:40;;;;;;;1.73;1.63;;;10.20;99.90;;;;;;4929407;29;20252;-75
2023/04/14 12:03:08;;;;;;;2.43;1.93;;;10.10;99.90;;;;;;4930032;29;20212;-76
2023/04/14 12:05:37;;;;;;;2.00;1.90;;;10.20;99.90;;;;;;4930013;29;20323;-75
2023/04/14 12:08:06;;;;;;;2.00;1.90;;;10.10;99.90;;;;;;4916879;29;20261;-75
2023/04/14 12:10:33;;;;;;;2.13;1.83;;;10.20;99.90;;;;;;4910976;29;21060;-75
2023/04/14 12:13:01;;;;;;;2.23;2.07;;;10.10;99.90;;;;;;4911148;29;20236;-75
2023/04/14 12:15:28;;;;;;;2.17;2.07;;;10.10;99.90;;;;;;4918867;29;20214;-75
2023/04/14 12:17:56;;;;;;;2.13;2.03;;;10.10;99.90;;;;;;4929983;29;20215;-75
2023/04/14 12:20:23;;;;;;;2.20;2.00;;;10.10;99.90;;;;;;4929821;29;20350;-75
2023/04/14 12:22:51;;;;;;;2.30;2.20;;;10.10;99.90;;;;;;4930114;29;20579;-75
2023/04/14 12:25:19;;;;;;;4.43;2.40;;;10.10;99.90;;;;;;4929601;29;20212;-75
2023/04/14 12:27:52;;;;;;;2.20;2.10;;;10.10;99.90;;;;;;4929706;29;20240;-75
2023/04/14 12:30:21;;;;;;;2.50;2.40;;;10.10;99.90;;;;;;4929868;29;20227;-75
2023/04/14 12:32:48;;;;;;;2.30;2.20;;;10.20;99.90;;;;;;4929784;29;20316;-75
2023/04/14 12:35:15;;;;;;;2.50;2.23;;;10.10;99.90;;;;;;4927108;29;20209;-75
2023/04/14 12:37:48;;;;;;;2.30;2.10;;;10.10;99.90;;;;;;4929517;29;20216;-76
2023/04/14 12:40:17;;;;;;;2.50;2.30;;;10.10;99.90;;;;;;4929435;29;20737;-76
2023/04/14 12:42:46;;;;;;;2.50;2.40;;;10.10;99.90;;;;;;4929294;29;20236;-75
2023/04/14 12:45:14;;;;;;;2.93;2.40;;;10.00;99.90;;;;;;4929019;29;20622;-75
2023/04/14 12:47:51;;;;;;;4.40;2.40;;;10.00;99.90;;;;;;4929354;29;20222;-75
2023/04/14 12:50:27;;;;;;;2.70;2.50;;;10.00;99.90;;;;;;4929100;29;20203;-75
2023/04/14 12:52:55;;;;;;;2.47;2.37;;;10.00;99.90;;;;;;4929487;29;20208;-75
2023/04/14 12:55:26;;;;;;;4.10;2.70;;;10.10;99.90;;;;;;4926026;29;20609;-75
2023/04/14 12:57:53;;;;;;;3.17;2.87;;;10.10;99.90;;;;;;4926537;29;20224;-75
2023/04/14 13:00:21;;;;;;;2.23;2.13;;;10.00;99.90;;;;;;4927499;29;20267;-75
2023/04/14 13:02:48;;;;;;;2.70;2.50;;;10.10;99.90;;;;;;4927439;29;20247;-76